Time;durP1;ratioP1;P1;durP2;ratioP2;P2;SDS_P1;SDS_P2;PMS_P1;PMS_P2;Temp;Humidity;BMP_temperature;BMP_pressure;BME280_temperature;BME280_humidity;BME280_pressure;Samples;Min_cycle;Max_cycle;Signal;HPM_P1;HPM_P2
2023/10/11 13:06:29;;;;;;;15.98;6.68;;;19.40;99.90;;;;;;524960;26;21119;-53
2023/10/11 13:08:55;;;;;;;14.85;7.22;;;19.20;99.90;;;;;;4991509;28;20053;-90
2023/10/11 13:11:22;;;;;;;12.75;6.13;;;19.30;99.90;;;;;;4992390;28;20045;-92
2023/10/11 13:13:51;;;;;;;14.98;7.07;;;19.20;99.90;;;;;;5012907;28;20091;-92
2023/10/11 13:16:26;;;;;;;13.73;6.55;;;19.20;99.90;;;;;;5004150;28;20052;-90
2023/10/11 13:18:52;;;;;;;15.85;6.90;;;19.20;99.90;;;;;;4997935;28;20052;-91
2023/10/11 13:21:23;;;;;;;16.90;6.63;;;19.20;99.90;;;;;;5003460;28;20075;-91
2023/10/11 13:23:50;;;;;;;13.15;5.90;;;19.10;99.90;;;;;;5003552;28;20153;-91
2023/10/11 13:26:18;;;;;;;14.35;6.30;;;19.10;99.90;;;;;;4988319;28;20846;-91
2023/10/11 13:28:53;;;;;;;17.20;6.18;;;19.10;99.90;;;;;;4996806;28;20061;-91
2023/10/11 13:31:19;;;;;;;13.07;6.65;;;19.20;99.90;;;;;;4989382;28;20044;-91
2023/10/11 13:33:47;;;;;;;12.82;5.85;;;19.20;99.90;;;;;;5024277;28;20021;-92
2023/10/11 13:36:15;;;;;;;11.27;6.00;;;19.20;99.90;;;;;;5034499;28;20041;-91
2023/10/11 13:38:45;;;;;;;15.00;5.75;;;19.20;99.90;;;;;;5044626;28;20056;-91
2023/10/11 13:41:13;;;;;;;13.60;5.50;;;19.20;99.90;;;;;;5041296;28;20079;-90
2023/10/11 13:43:39;;;;;;;12.77;5.93;;;19.20;99.90;;;;;;5007076;28;20429;-89
2023/10/11 13:46:10;;;;;;;14.73;5.72;;;19.20;99.90;;;;;;5007233;28;20045;-90
2023/10/11 13:48:39;;;;;;;13.57;6.47;;;19.20;99.90;;;;;;5024989;28;20041;-90
2023/10/11 13:51:20;;;;;;;11.52;6.38;;;19.10;99.90;;;;;;5008231;28;20116;-90
2023/10/11 13:53:51;;;;;;;14.68;6.32;;;19.10;99.90;;;;;;5011435;28;20191;-90
2023/10/11 13:56:23;;;;;;;15.07;5.95;;;19.00;99.90;;;;;;5014658;28;20053;-90
2023/10/11 13:58:49;;;;;;;14.18;5.82;;;18.90;99.90;;;;;;5030327;28;20073;-89
2023/10/11 14:04:12;;;;;;;13.43;5.60;;;18.80;99.90;;;;;;5010952;28;20156;-89
2023/10/11 14:06:52;;;;;;;16.05;6.22;;;18.90;99.90;;;;;;5023091;28;20414;-90
2023/10/11 14:09:30;;;;;;;12.20;5.97;;;18.90;99.90;;;;;;5010304;28;20092;-90
2023/10/11 14:11:55;;;;;;;13.32;6.30;;;18.90;99.90;;;;;;5003084;28;20128;-90
2023/10/11 14:14:23;;;;;;;11.55;5.90;;;18.90;99.90;;;;;;5013378;28;20048;-90
2023/10/11 14:16:49;;;;;;;16.83;5.63;;;19.00;99.90;;;;;;5009799;28;20099;-91
2023/10/11 14:19:19;;;;;;;16.90;6.25;;;19.10;99.90;;;;;;5001176;28;20037;-90
2023/10/11 14:21:47;;;;;;;18.80;6.53;;;19.00;99.90;;;;;;5012525;28;20523;-90
2023/10/11 14:24:16;;;;;;;15.90;6.65;;;19.00;99.90;;;;;;5006294;28;20135;-89
2023/10/11 14:26:44;;;;;;;16.05;6.75;;;18.90;99.90;;;;;;5024193;28;20049;-89
2023/10/11 14:29:17;;;;;;;16.05;6.72;;;18.90;99.90;;;;;;5026944;28;20045;-90
2023/10/11 14:31:43;;;;;;;14.75;5.97;;;18.90;99.90;;;;;;5006240;28;20519;-90
2023/10/11 14:34:10;;;;;;;15.13;6.43;;;19.00;99.90;;;;;;5011646;28;20778;-90
2023/10/11 14:36:40;;;;;;;14.63;6.88;;;19.00;99.90;;;;;;5008958;28;20045;-95
2023/10/11 14:39:17;;;;;;;15.27;6.53;;;19.00;99.90;;;;;;5008557;28;20041;-90
2023/10/11 14:41:45;;;;;;;14.75;6.28;;;19.00;99.90;;;;;;5022946;28;20135;-90
2023/10/11 14:44:13;;;;;;;14.95;6.18;;;19.00;99.90;;;;;;4995649;28;20072;-91
2023/10/11 14:46:42;;;;;;;18.08;7.45;;;18.90;99.90;;;;;;4991079;28;20049;-90
2023/10/11 14:49:11;;;;;;;16.15;6.05;;;18.90;99.90;;;;;;5012248;28;20076;-91
2023/10/11 14:51:38;;;;;;;14.38;5.95;;;18.80;99.90;;;;;;4992809;28;20042;-90
2023/10/11 14:54:07;;;;;;;15.05;5.93;;;18.80;99.90;;;;;;4995600;28;20041;-92
2023/10/11 14:56:34;;;;;;;16.30;6.53;;;18.80;99.90;;;;;;5008509;28;20045;-90
2023/10/11 14:59:01;;;;;;;17.08;6.32;;;18.80;99.90;;;;;;4996294;28;20029;-90
2023/10/11 15:01:27;;;;;;;14.05;6.05;;;18.80;99.90;;;;;;4998863;28;20037;-92
2023/10/11 15:03:57;;;;;;;13.20;6.03;;;18.80;99.90;;;;;;5046564;28;20688;-94
2023/10/11 15:06:23;;;;;;;18.65;7.47;;;18.70;99.90;;;;;;5001104;28;20152;-90
2023/10/11 15:08:51;;;;;;;13.32;6.97;;;18.60;99.90;;;;;;4987957;28;20814;-89
2023/10/11 15:11:20;;;;;;;15.23;7.35;;;18.60;99.90;;;;;;5002526;28;20053;-90
2023/10/11 15:13:46;;;;;;;17.70;6.93;;;18.50;99.90;;;;;;5020194;28;20094;-90
2023/10/11 15:16:19;;;;;;;20.20;6.95;;;18.50;99.90;;;;;;5014235;28;20144;-90
2023/10/11 15:18:45;;;;;;;14.82;7.13;;;18.50;99.90;;;;;;5002753;28;20081;-91
2023/10/11 15:21:11;;;;;;;15.35;7.50;;;18.40;99.90;;;;;;5000887;28;20076;-93
2023/10/11 15:23:37;;;;;;;15.70;7.05;;;18.40;99.90;;;;;;5002046;28;20069;-91
2023/10/11 15:26:04;;;;;;;18.35;7.45;;;18.40;99.90;;;;;;5035178;28;20539;-91
2023/10/11 15:28:30;;;;;;;21.63;7.88;;;18.30;99.90;;;;;;5001026;28;20116;-90
2023/10/11 15:31:04;;;;;;;19.25;8.65;;;18.20;99.90;;;;;;5020709;28;20048;-91
2023/10/11 15:33:33;;;;;;;28.95;10.40;;;18.10;99.90;;;;;;5034247;28;20556;-94
2023/10/11 15:36:06;;;;;;;22.40;9.60;;;18.00;99.90;;;;;;5002144;28;20140;-89
2023/10/11 15:38:35;;;;;;;26.80;9.40;;;18.00;99.90;;;;;;5024969;28;20091;-89
2023/10/11 15:41:04;;;;;;;22.90;9.02;;;17.90;99.90;;;;;;5027275;28;20114;-89
2023/10/11 15:43:36;;;;;;;18.67;9.20;;;17.90;99.90;;;;;;5003401;28;20056;-90
2023/10/11 15:46:05;;;;;;;24.45;10.95;;;17.80;99.90;;;;;;4902620;22;20049;-44
2023/10/11 15:48:32;;;;;;;24.92;9.65;;;17.80;99.90;;;;;;5038181;28;20102;-43
2023/10/11 15:51:08;;;;;;;24.52;10.63;;;17.80;99.90;;;;;;5019369;28;20503;-43
2023/10/11 15:53:34;;;;;;;23.25;10.60;;;17.80;99.90;;;;;;5019016;28;20044;-44
2023/10/11 15:56:02;;;;;;;28.63;11.60;;;17.80;99.90;;;;;;5019555;28;20044;-44
2023/10/11 15:58:29;;;;;;;19.98;10.18;;;17.70;99.90;;;;;;5020255;28;20085;-46
2023/10/11 16:00:55;;;;;;;20.88;9.70;;;17.70;99.90;;;;;;5038352;28;20090;-44
2023/10/11 16:03:24;;;;;;;18.02;9.52;;;17.60;99.90;;;;;;5016922;28;20719;-42
2023/10/11 16:05:49;;;;;;;18.83;10.10;;;17.60;99.90;;;;;;5019975;28;20052;-44
2023/10/11 16:08:15;;;;;;;25.02;10.45;;;17.60;99.90;;;;;;5036602;28;20581;-46
2023/10/11 16:10:41;;;;;;;22.35;10.82;;;17.60;99.90;;;;;;5020652;28;20087;-45
2023/10/11 16:13:06;;;;;;;22.10;11.40;;;17.50;99.90;;;;;;5039915;28;20041;-44
2023/10/11 16:15:32;;;;;;;27.77;11.88;;;17.50;99.90;;;;;;5038873;28;20072;-44
2023/10/11 16:17:58;;;;;;;24.17;11.48;;;17.50;99.90;;;;;;5039639;28;20040;-46
2023/10/11 16:20:25;;;;;;;22.33;10.98;;;17.50;99.90;;;;;;5038779;28;20404;-45
2023/10/11 16:22:51;;;;;;;27.70;14.25;;;17.40;99.90;;;;;;5039867;28;20045;-45
2023/10/11 16:25:18;;;;;;;26.90;13.18;;;17.40;99.90;;;;;;5021135;28;20045;-43
2023/10/11 16:27:45;;;;;;;20.92;11.32;;;17.30;99.90;;;;;;5039815;28;20095;-44
2023/10/11 16:30:14;;;;;;;24.25;12.20;;;17.40;99.90;;;;;;5039503;28;20044;-48
2023/10/11 16:32:40;;;;;;;27.10;12.18;;;17.30;99.90;;;;;;5020937;28;20052;-44
2023/10/11 16:35:13;;;;;;;24.33;12.70;;;17.30;99.90;;;;;;5020215;28;20534;-45
2023/10/11 16:37:40;;;;;;;21.52;12.45;;;17.30;99.90;;;;;;5035880;28;20037;-44
2023/10/11 16:40:15;;;;;;;30.95;12.05;;;17.20;99.90;;;;;;5035772;28;20446;-47
2023/10/11 16:42:41;;;;;;;29.25;12.70;;;17.20;99.90;;;;;;5020417;28;20454;-43
2023/10/11 16:45:13;;;;;;;27.60;13.90;;;17.20;99.90;;;;;;5036790;28;20057;-43
2023/10/11 16:47:46;;;;;;;33.88;14.73;;;17.20;99.90;;;;;;5028462;28;20074;-44
2023/10/11 16:50:12;;;;;;;24.83;11.57;;;17.20;99.90;;;;;;5036291;28;20343;-43
2023/10/11 16:52:39;;;;;;;23.15;12.15;;;17.10;99.90;;;;;;5015654;28;20041;-44
2023/10/11 16:55:09;;;;;;;30.75;13.20;;;17.10;99.90;;;;;;5035544;28;20589;-42
2023/10/11 16:57:38;;;;;;;30.55;13.50;;;17.10;99.90;;;;;;5029582;28;20125;-44
2023/10/11 17:00:12;;;;;;;25.48;13.30;;;17.10;99.90;;;;;;5010541;28;20144;-45
2023/10/11 17:02:40;;;;;;;28.15;12.98;;;17.10;99.90;;;;;;5031937;28;20330;-44
2023/10/11 17:05:07;;;;;;;26.70;13.93;;;17.10;99.90;;;;;;5017848;28;20048;-47
2023/10/11 17:07:33;;;;;;;28.20;13.13;;;17.10;99.90;;;;;;5020487;28;20462;-44
2023/10/11 17:09:59;;;;;;;26.40;13.48;;;17.10;99.90;;;;;;5038131;28;20041;-46
2023/10/11 17:12:24;;;;;;;30.10;14.55;;;17.10;99.90;;;;;;5034801;28;20805;-43
2023/10/11 17:14:50;;;;;;;28.88;14.18;;;17.00;99.90;;;;;;4138901;28;10000945;-45
2023/10/11 17:17:17;;;;;;;34.47;13.98;;;17.10;99.90;;;;;;4998125;28;20042;-44
2023/10/11 17:19:43;;;;;;;30.65;15.32;;;17.10;99.90;;;;;;4995432;28;20043;-44
2023/10/11 17:22:09;;;;;;;35.00;16.63;;;17.00;99.90;;;;;;4995881;28;20053;-43
2023/10/11 17:24:36;;;;;;;33.50;18.00;;;17.10;99.90;;;;;;4980723;28;20053;-47
2023/10/11 17:27:03;;;;;;;27.13;16.88;;;17.10;99.90;;;;;;4980033;28;20159;-43
2023/10/11 17:29:29;;;;;;;38.15;18.95;;;17.00;99.90;;;;;;4981218;28;20505;-43
2023/10/11 17:31:55;;;;;;;29.70;18.80;;;17.10;99.90;;;;;;4981838;28;20056;-42
2023/10/11 17:34:21;;;;;;;35.78;19.55;;;17.00;99.90;;;;;;4999505;28;20034;-44
2023/10/11 17:36:47;;;;;;;34.10;18.70;;;17.00;99.90;;;;;;4979969;28;20045;-43
2023/10/11 17:39:13;;;;;;;43.05;20.77;;;17.00;99.90;;;;;;4997567;28;20046;-43
2023/10/11 17:41:40;;;;;;;38.67;20.65;;;17.00;99.90;;;;;;4989021;28;20108;-46
2023/10/11 17:44:06;;;;;;;41.70;23.45;;;16.90;99.90;;;;;;4971468;28;20054;-46
2023/10/11 17:46:32;;;;;;;37.08;20.83;;;16.90;99.90;;;;;;4987043;28;20069;-46
2023/10/11 17:48:58;;;;;;;47.17;21.77;;;16.90;99.90;;;;;;4991654;28;20682;-45
2023/10/11 17:51:27;;;;;;;41.53;21.30;;;16.90;99.90;;;;;;4988123;28;20046;-44
2023/10/11 17:53:53;;;;;;;38.85;22.30;;;16.90;99.90;;;;;;4990755;28;20049;-45
2023/10/11 17:56:19;;;;;;;45.00;22.60;;;16.80;99.90;;;;;;4956512;28;20174;-44
2023/10/11 17:58:48;;;;;;;42.88;21.17;;;16.80;99.90;;;;;;4977052;28;20319;-43
2023/10/11 18:01:17;;;;;;;43.33;22.13;;;16.80;99.90;;;;;;4990277;28;20136;-46
2023/10/11 18:03:43;;;;;;;45.22;23.45;;;16.90;99.90;;;;;;4991653;28;20050;-47
2023/10/11 18:06:09;;;;;;;40.90;24.08;;;16.80;99.90;;;;;;4990064;28;20048;-44
2023/10/11 18:08:35;;;;;;;46.47;23.65;;;16.90;99.90;;;;;;4992122;28;20069;-46
2023/10/11 18:11:01;;;;;;;45.65;22.73;;;16.80;99.90;;;;;;4989541;28;20121;-43
2023/10/11 18:13:27;;;;;;;48.38;23.23;;;16.80;99.90;;;;;;4975172;28;20113;-46
2023/10/11 18:15:53;;;;;;;50.78;26.00;;;16.80;99.90;;;;;;4991130;28;20409;-44
2023/10/11 18:18:19;;;;;;;47.40;24.05;;;16.80;99.90;;;;;;4990724;28;20030;-45
2023/10/11 18:20:48;;;;;;;46.00;24.77;;;16.80;99.90;;;;;;4993632;28;20990;-46
2023/10/11 18:23:14;;;;;;;46.13;23.27;;;16.80;99.90;;;;;;4993068;28;20501;-44
2023/10/11 18:25:40;;;;;;;39.30;21.00;;;16.80;99.90;;;;;;4994397;28;20529;-44
2023/10/11 18:28:05;;;;;;;34.08;20.05;;;16.70;99.90;;;;;;4993247;28;20053;-43
2023/10/11 18:30:32;;;;;;;42.95;21.33;;;16.80;99.90;;;;;;4976642;28;20053;-45
2023/10/11 18:32:58;;;;;;;38.03;20.52;;;16.70;99.90;;;;;;4998908;28;20073;-44
2023/10/11 18:35:26;;;;;;;33.95;19.40;;;16.70;99.90;;;;;;4979997;28;20169;-42
2023/10/11 18:37:52;;;;;;;39.10;19.40;;;16.70;99.90;;;;;;4980051;28;20129;-43
2023/10/11 18:40:22;;;;;;;36.88;20.38;;;16.70;99.90;;;;;;5000693;28;20052;-43
2023/10/11 18:42:52;;;;;;;42.95;22.42;;;16.60;99.90;;;;;;4981543;28;20046;-43
2023/10/11 18:45:20;;;;;;;51.85;23.25;;;16.60;99.90;;;;;;4981728;28;20069;-45
2023/10/11 18:47:48;;;;;;;44.42;22.38;;;16.60;99.90;;;;;;4982099;28;20116;-42
2023/10/11 18:50:15;;;;;;;49.63;22.90;;;16.60;99.90;;;;;;5000755;28;20861;-44
2023/10/11 18:52:41;;;;;;;48.78;25.00;;;16.60;99.90;;;;;;5000769;28;20057;-45
2023/10/11 18:55:10;;;;;;;48.05;26.73;;;16.60;99.90;;;;;;4981489;28;20057;-46
2023/10/11 18:57:40;;;;;;;53.83;27.13;;;16.60;99.90;;;;;;4981216;28;20037;-47
2023/10/11 19:00:11;;;;;;;55.97;30.00;;;16.70;99.90;;;;;;5000363;28;20088;-46
2023/10/11 19:02:44;;;;;;;58.45;28.95;;;16.60;99.90;;;;;;5001858;28;20085;-44
2023/10/11 19:05:11;;;;;;;67.70;30.15;;;16.60;99.90;;;;;;5000778;28;20042;-46
2023/10/11 19:07:38;;;;;;;59.13;30.13;;;16.60;99.90;;;;;;5001186;28;20133;-44
2023/10/11 19:10:05;;;;;;;45.10;27.35;;;16.60;99.90;;;;;;5001204;28;20037;-43
2023/10/11 19:12:39;;;;;;;56.05;29.67;;;16.60;99.90;;;;;;4982762;28;20092;-44
2023/10/11 19:15:06;;;;;;;57.45;29.58;;;16.60;99.90;;;;;;4966116;28;20828;-43
2023/10/11 19:17:36;;;;;;;66.18;32.10;;;16.50;99.90;;;;;;4997058;28;20077;-42
2023/10/11 19:20:09;;;;;;;54.70;28.95;;;16.60;99.90;;;;;;4996505;28;20225;-42
2023/10/11 19:22:35;;;;;;;60.05;30.17;;;16.60;99.90;;;;;;4994171;28;20527;-44
2023/10/11 19:25:01;;;;;;;54.90;28.98;;;16.60;99.90;;;;;;4994038;28;20050;-45
2023/10/11 19:27:27;;;;;;;56.22;31.48;;;16.60;99.90;;;;;;4993452;28;20547;-46
2023/10/11 19:29:53;;;;;;;53.03;30.83;;;16.60;99.90;;;;;;4995068;28;20042;-45
2023/10/11 19:32:19;;;;;;;53.58;31.70;;;16.60;99.90;;;;;;4995833;28;20579;-44
2023/10/11 19:34:48;;;;;;;68.25;34.83;;;16.60;99.90;;;;;;4994612;28;20041;-44
2023/10/11 19:37:14;;;;;;;68.75;33.88;;;16.60;99.90;;;;;;4993282;28;20052;-46
2023/10/11 19:39:39;;;;;;;70.88;35.70;;;16.60;99.90;;;;;;4973622;28;20049;-43
2023/10/11 19:42:05;;;;;;;65.75;33.13;;;16.60;99.90;;;;;;4971992;28;20052;-43
2023/10/11 19:44:31;;;;;;;60.95;34.03;;;16.60;99.90;;;;;;4992491;28;20104;-44
2023/10/11 19:46:58;;;;;;;73.47;36.97;;;16.60;99.90;;;;;;4993653;28;20038;-44
2023/10/11 19:49:24;;;;;;;61.65;34.17;;;16.60;99.90;;;;;;4994675;28;20060;-47
2023/10/11 19:51:50;;;;;;;67.47;35.97;;;16.60;99.90;;;;;;4970993;28;20042;-44
2023/10/11 19:54:16;;;;;;;58.92;33.67;;;16.60;99.90;;;;;;4995740;28;20046;-44
2023/10/11 19:56:42;;;;;;;65.70;35.47;;;16.60;99.90;;;;;;4976436;28;20530;-43
2023/10/11 19:59:10;;;;;;;57.20;34.20;;;16.60;99.90;;;;;;4993863;28;20046;-44
2023/10/11 20:01:36;;;;;;;64.43;34.35;;;16.60;99.90;;;;;;4993717;28;20049;-47
2023/10/11 20:04:04;;;;;;;61.72;32.88;;;16.60;99.90;;;;;;4990155;28;20479;-47
2023/10/11 20:06:29;;;;;;;64.05;34.08;;;16.60;99.90;;;;;;4988376;28;20164;-45
2023/10/11 20:08:55;;;;;;;53.75;32.42;;;16.50;99.90;;;;;;4993601;28;20108;-44
2023/10/11 20:11:21;;;;;;;50.22;30.73;;;16.60;99.90;;;;;;4974857;28;20038;-46
2023/10/11 20:13:48;;;;;;;61.08;30.98;;;16.60;99.90;;;;;;4993132;28;20042;-48
2023/10/11 20:16:16;;;;;;;63.65;33.67;;;16.50;99.90;;;;;;4994528;28;20048;-47
2023/10/11 20:18:46;;;;;;;62.60;33.42;;;16.60;99.90;;;;;;4959566;28;20485;-47
2023/10/11 20:21:18;;;;;;;57.53;32.65;;;16.50;99.90;;;;;;4993256;28;20048;-44
2023/10/11 20:23:45;;;;;;;64.47;33.53;;;16.50;99.90;;;;;;4973363;28;20145;-43
2023/10/11 20:26:14;;;;;;;57.47;33.13;;;16.50;99.90;;;;;;4971214;28;20422;-47
2023/10/11 20:28:41;;;;;;;61.22;32.47;;;16.60;99.90;;;;;;4996395;28;20053;-46
2023/10/11 20:31:09;;;;;;;60.78;31.98;;;16.60;99.90;;;;;;4974251;28;20472;-43
2023/10/11 20:33:35;;;;;;;64.50;34.15;;;16.50;99.90;;;;;;4993281;28;20118;-46
2023/10/11 20:36:00;;;;;;;59.30;32.38;;;16.50;99.90;;;;;;4990663;28;20030;-46
2023/10/11 20:38:28;;;;;;;58.90;31.27;;;16.50;99.90;;;;;;4993542;28;20630;-43
2023/10/11 20:40:53;;;;;;;74.97;34.80;;;16.50;99.90;;;;;;4993239;28;20121;-43
2023/10/11 20:43:22;;;;;;;57.70;33.03;;;16.50;99.90;;;;;;4991746;28;20065;-46
2023/10/11 20:45:50;;;;;;;64.72;32.75;;;16.50;99.90;;;;;;4975415;28;20042;-42
2023/10/11 20:48:21;;;;;;;58.95;33.03;;;16.60;99.90;;;;;;4992005;28;20045;-44
2023/10/11 20:50:48;;;;;;;65.78;33.90;;;16.50;99.90;;;;;;4992135;28;20117;-48
2023/10/11 20:53:14;;;;;;;58.03;32.38;;;16.50;99.90;;;;;;4990001;28;20065;-42
2023/10/11 20:55:44;;;;;;;56.75;31.48;;;16.50;99.90;;;;;;4993489;28;20500;-46
2023/10/11 21:00:43;;;;;;;56.40;30.35;;;16.40;99.90;;;;;;4991724;28;20045;-42
2023/10/11 21:03:11;;;;;;;57.55;31.00;;;16.50;99.90;;;;;;4990031;28;20056;-43
2023/10/11 21:05:46;;;;;;;52.33;28.70;;;16.50;99.90;;;;;;4989427;28;20069;-43
2023/10/11 21:08:14;;;;;;;51.05;27.70;;;16.50;99.90;;;;;;4975764;28;20048;-44
2023/10/11 21:10:45;;;;;;;48.15;27.45;;;16.40;99.90;;;;;;4992598;28;20886;-44
2023/10/11 21:13:22;;;;;;;56.33;29.70;;;16.50;99.90;;;;;;4985184;28;20364;-48
2023/10/11 21:15:48;;;;;;;50.92;28.45;;;16.40;99.90;;;;;;4992344;28;20297;-43
2023/10/11 21:18:15;;;;;;;52.60;28.25;;;16.40;99.90;;;;;;4993912;28;20985;-45
2023/10/11 21:20:42;;;;;;;63.88;31.90;;;16.50;99.90;;;;;;4981925;28;20048;-43
2023/10/11 21:23:15;;;;;;;55.80;29.88;;;16.40;99.90;;;;;;4997942;28;20300;-44
2023/10/11 21:25:49;;;;;;;55.03;29.55;;;16.50;99.90;;;;;;4997708;28;20049;-43
2023/10/11 21:28:16;;;;;;;60.08;31.10;;;16.50;99.90;;;;;;4992692;28;20053;-44
2023/10/11 21:30:42;;;;;;;62.15;29.70;;;16.50;99.90;;;;;;4990761;28;20101;-44
2023/10/11 21:33:13;;;;;;;53.10;29.08;;;16.50;99.90;;;;;;4980165;28;20053;-43
2023/10/11 21:35:42;;;;;;;55.38;28.90;;;16.40;99.90;;;;;;4980388;28;20148;-48
2023/10/11 21:38:09;;;;;;;56.70;29.63;;;16.40;99.90;;;;;;4985830;28;20053;-44
2023/10/11 21:40:41;;;;;;;58.15;30.40;;;16.40;99.90;;;;;;4998836;28;20046;-47
2023/10/11 21:43:11;;;;;;;23.93;12.67;;;16.40;99.90;;;;;;4999467;28;20049;-45
2023/10/11 21:45:37;;;;;;;16.00;5.82;;;16.40;99.90;;;;;;4997560;28;20045;-45
2023/10/11 21:48:06;;;;;;;13.50;4.13;;;16.20;99.90;;;;;;4998463;28;20121;-44
2023/10/11 21:50:32;;;;;;;10.60;3.15;;;16.10;99.90;;;;;;4980805;28;20101;-46
2023/10/11 21:53:01;;;;;;;9.13;2.90;;;15.90;99.90;;;;;;4980869;28;20056;-45
2023/10/11 21:55:27;;;;;;;12.77;2.88;;;15.80;99.90;;;;;;4984670;28;20122;-46
2023/10/11 21:57:52;;;;;;;7.60;2.90;;;15.70;99.90;;;;;;4984329;28;20519;-46
2023/10/11 22:03:06;;;;;;;6.75;2.10;;;15.60;99.90;;;;;;5003078;28;20459;-47
2023/10/11 22:05:31;;;;;;;7.38;2.10;;;15.40;99.90;;;;;;5001324;28;20154;-47
2023/10/11 22:07:59;;;;;;;15.35;2.50;;;15.20;99.90;;;;;;4984238;28;20054;-46
2023/10/11 22:10:28;;;;;;;10.15;2.47;;;15.10;99.90;;;;;;5002169;28;20799;-46
2023/10/11 22:12:55;;;;;;;10.50;2.40;;;15.00;99.90;;;;;;4984397;28;20060;-47
2023/10/11 22:15:22;;;;;;;9.50;2.78;;;14.90;99.90;;;;;;4983613;28;20144;-45
2023/10/11 22:17:56;;;;;;;8.30;2.60;;;14.90;99.90;;;;;;5002037;28;20054;-46
2023/10/11 22:20:27;;;;;;;10.60;2.75;;;14.70;99.90;;;;;;5001515;28;20038;-47
2023/10/11 22:22:56;;;;;;;11.57;2.28;;;14.60;99.90;;;;;;5001349;28;20163;-45
2023/10/11 22:25:24;;;;;;;12.45;2.58;;;14.50;99.90;;;;;;4982742;28;20052;-47
2023/10/11 22:27:52;;;;;;;14.52;2.90;;;14.30;99.90;;;;;;5001546;28;20944;-44
2023/10/11 22:30:21;;;;;;;12.98;2.40;;;14.20;99.90;;;;;;5001642;28;20041;-43
2023/10/11 22:32:48;;;;;;;10.98;2.30;;;14.10;99.90;;;;;;5001253;28;20049;-45
2023/10/11 22:35:14;;;;;;;11.80;2.80;;;14.10;99.90;;;;;;4966847;28;20038;-46
2023/10/11 22:37:40;;;;;;;15.77;2.92;;;14.10;99.90;;;;;;4979190;28;20566;-43
2023/10/11 22:40:13;;;;;;;15.88;3.22;;;14.00;99.90;;;;;;5001866;28;20049;-45
2023/10/11 22:42:41;;;;;;;15.85;3.83;;;14.00;99.90;;;;;;5002048;28;20583;-45
2023/10/11 22:45:08;;;;;;;15.68;3.63;;;13.90;99.90;;;;;;5000621;28;20060;-43
2023/10/11 22:47:34;;;;;;;15.38;3.40;;;14.00;99.90;;;;;;5000861;28;20065;-44
2023/10/11 22:50:00;;;;;;;16.75;3.75;;;13.90;99.90;;;;;;5001333;28;20298;-44
2023/10/11 22:52:26;;;;;;;15.63;3.10;;;13.90;99.90;;;;;;4982730;28;20050;-42
2023/10/11 22:54:52;;;;;;;17.58;2.97;;;13.90;99.90;;;;;;4982483;28;20050;-44
2023/10/11 22:57:18;;;;;;;20.73;3.45;;;13.90;99.90;;;;;;5001009;28;20065;-44
2023/10/11 22:59:45;;;;;;;17.00;3.65;;;13.90;99.90;;;;;;5000888;28;20394;-45
2023/10/11 23:02:13;;;;;;;11.88;3.10;;;13.80;99.90;;;;;;5000990;28;20061;-44
2023/10/11 23:04:39;;;;;;;17.88;3.05;;;13.80;99.90;;;;;;5000566;28;20405;-45
2023/10/11 23:07:06;;;;;;;13.60;4.20;;;13.80;99.90;;;;;;5000441;28;20053;-43
2023/10/11 23:09:33;;;;;;;11.85;3.90;;;13.70;99.90;;;;;;5001198;28;20057;-45
2023/10/11 23:12:00;;;;;;;19.30;3.22;;;13.70;99.90;;;;;;4982508;28;20228;-45
2023/10/11 23:14:31;;;;;;;16.90;3.17;;;13.60;99.90;;;;;;5000037;28;20294;-44
2023/10/11 23:16:57;;;;;;;15.57;3.35;;;13.60;99.90;;;;;;4998736;28;20069;-46
2023/10/11 23:19:23;;;;;;;17.25;3.13;;;13.60;99.90;;;;;;5000782;28;20635;-45
2023/10/11 23:21:53;;;;;;;17.27;3.17;;;13.60;99.90;;;;;;4982643;28;20049;-44
2023/10/11 23:24:31;;;;;;;16.25;3.22;;;13.60;99.90;;;;;;4982200;28;20442;-45
2023/10/11 23:26:57;;;;;;;20.77;3.30;;;13.50;99.90;;;;;;4982207;28;20463;-45
2023/10/11 23:29:24;;;;;;;20.65;3.72;;;13.50;99.90;;;;;;5000640;28;20041;-44
2023/10/11 23:31:50;;;;;;;12.00;2.83;;;13.60;99.90;;;;;;4985817;28;20508;-44
2023/10/11 23:34:24;;;;;;;14.70;2.90;;;13.60;99.90;;;;;;4999567;28;20306;-44
2023/10/11 23:36:55;;;;;;;10.57;2.63;;;13.60;99.90;;;;;;4999282;28;20112;-43
2023/10/11 23:39:21;;;;;;;12.80;2.67;;;13.60;99.90;;;;;;4994727;28;20045;-43
2023/10/11 23:41:51;;;;;;;20.20;3.85;;;13.60;99.90;;;;;;5000791;28;20385;-45
2023/10/11 23:44:18;;;;;;;15.15;3.08;;;13.50;99.90;;;;;;5000037;28;20077;-44
2023/10/11 23:46:57;;;;;;;15.48;3.08;;;13.50;99.90;;;;;;5000103;28;20037;-45
2023/10/11 23:49:30;;;;;;;13.88;3.15;;;13.40;99.90;;;;;;4999954;28;20041;-43
2023/10/11 23:52:00;;;;;;;;;;;13.40;99.90;;;;;;5000795;28;20345;-43
2023/10/11 23:54:30;;;;;;;15.48;3.20;;;13.50;99.90;;;;;;4999710;28;19949;-44
2023/10/11 23:56:56;;;;;;;15.88;3.42;;;13.40;99.90;;;;;;4982093;28;20129;-44
2023/10/11 23:59:30;;;;;;;13.60;2.92;;;13.40;99.90;;;;;;4966064;28;20054;-44
